Terminal Aerodrome Forecast
Issued by NWS Huntsville, AL

Home | Current Version | Previous Version | Text Only | Print | Product List | Glossary On
Versions: 1 2 3 4 5 6 7 8 9 10 11 12 13 14
000
FTUS44 KHUN 292320
TAFMSL
TAF
KMSL 292320Z 3000/3024 33010KT P6SM SCT040 BKN050
     FM300200 35006KT P6SM SCT050
     FM300900 30003KT 5SM BR OVC020
     FM301400 29005KT P6SM BKN040=

USA.gov is the U.S. government's official web portal to all federal, state and local government web resources and services.